Time;durP1;ratioP1;P1;durP2;ratioP2;P2;SDS_P1;SDS_P2;PMS_P1;PMS_P2;Temp;Humidity;BMP_temperature;BMP_pressure;BME280_temperature;BME280_humidity;BME280_pressure;Samples;Min_cycle;Max_cycle;Signal;HPM_P1;HPM_P2
2021/03/31 00:00:28;;;;;;;45.00;31.45;;;;;;;10.22;74.00;100055.14;114583;1206;103050;-76
2021/03/31 00:03:13;;;;;;;49.40;30.50;;;;;;;10.26;74.11;100057.53;114533;1206;103169;-77
2021/03/31 00:05:43;;;;;;;51.45;32.55;;;;;;;10.30;74.13;100052.05;114499;1206;103121;-77
2021/03/31 00:08:10;;;;;;;45.30;30.40;;;;;;;10.33;74.16;100054.54;114490;1206;103111;-78
2021/03/31 00:10:39;;;;;;;49.35;31.75;;;;;;;10.36;74.20;100054.37;114471;1206;103131;-78
2021/03/31 00:13:06;;;;;;;49.20;32.40;;;;;;;10.37;74.18;100048.11;114457;1209;103059;-77
2021/03/31 00:15:36;;;;;;;47.55;32.25;;;;;;;10.39;74.03;100052.41;114515;1206;103213;-75
2021/03/31 00:18:08;;;;;;;45.30;30.60;;;;;;;10.39;74.09;100055.08;114528;1206;103082;-75
2021/03/31 00:20:38;;;;;;;;;;;;;;;10.38;74.03;100050.70;114534;1206;103117;-75
2021/03/31 00:23:16;;;;;;;50.45;32.00;;;;;;;10.41;74.07;100041.70;114477;1206;103206;-75
2021/03/31 00:25:45;;;;;;;48.20;32.07;;;;;;;10.43;74.17;100045.14;114506;1208;103121;-75
2021/03/31 00:28:14;;;;;;;42.80;28.10;;;;;;;10.41;73.88;100047.02;114486;1206;103290;-76
2021/03/31 00:30:42;;;;;;;46.10;28.05;;;;;;;10.28;73.58;100052.98;114468;1206;103144;-75
2021/03/31 00:33:12;;;;;;;42.75;27.25;;;;;;;10.13;73.48;100043.23;114498;1206;103072;-76
2021/03/31 00:35:41;;;;;;;46.30;28.85;;;;;;;10.01;73.67;100051.87;114525;1206;103075;-75
2021/03/31 00:38:12;;;;;;;46.50;29.80;;;;;;;9.92;73.95;100045.27;114509;1206;103169;-74
2021/03/31 00:40:50;;;;;;;46.60;28.80;;;;;;;9.89;73.80;100045.42;114534;1206;103117;-76
2021/03/31 00:43:24;;;;;;;49.70;33.13;;;;;;;9.83;74.12;100042.16;114497;1206;103131;-77
2021/03/31 00:45:54;;;;;;;45.05;29.55;;;;;;;9.83;73.87;100030.66;114499;1206;103066;-75
2021/03/31 00:48:21;;;;;;;45.10;28.70;;;;;;;9.83;74.16;100038.63;114469;1206;103057;-75
2021/03/31 00:50:54;;;;;;;49.90;32.85;;;;;;;9.81;74.04;100035.19;114378;1206;103146;-76
2021/03/31 00:53:30;;;;;;;50.15;32.40;;;;;;;9.83;74.35;100033.31;114384;1206;103412;-76
2021/03/31 00:56:00;;;;;;;51.40;32.60;;;;;;;9.86;74.24;100040.28;115463;1206;103717;-75
2021/03/31 00:58:27;;;;;;;47.60;30.80;;;;;;;9.82;74.08;100029.81;114543;1206;103057;-76
2021/03/31 01:00:56;;;;;;;47.80;32.35;;;;;;;9.79;74.21;100035.29;114521;1206;103098;-77
2021/03/31 01:03:23;;;;;;;46.05;29.90;;;;;;;9.81;74.17;100028.09;114509;1206;103088;-75
2021/03/31 01:05:53;;;;;;;45.50;31.60;;;;;;;9.83;74.15;100031.53;114520;1206;103212;-76
2021/03/31 01:08:20;;;;;;;48.37;32.43;;;;;;;9.86;74.50;100030.48;114472;1206;103061;-77
2021/03/31 01:10:55;;;;;;;48.10;31.90;;;;;;;9.89;74.46;100032.98;114513;1206;103065;-75
2021/03/31 01:13:44;;;;;;;49.60;33.30;;;;;;;9.89;74.30;100030.33;114389;1206;103053;-76
2021/03/31 01:16:43;;;;;;;46.90;29.35;;;;;;;9.90;74.20;100036.52;115130;1206;103172;-76
2021/03/31 01:19:09;;;;;;;45.80;28.80;;;;;;;9.89;74.28;100026.83;114490;1206;103150;-77
2021/03/31 01:22:14;;;;;;;46.65;31.55;;;;;;;9.88;74.19;100030.42;114368;1206;103156;-76
2021/03/31 01:25:39;;;;;;;49.40;32.40;;;;;;;9.89;74.27;100030.33;114570;1209;103095;-77
2021/03/31 01:28:32;;;;;;;41.15;27.25;;;;;;;9.88;74.12;100025.11;113893;1209;103216;-76
2021/03/31 01:31:15;;;;;;;47.17;31.77;;;;;;;9.83;74.13;100028.00;113822;1209;103293;-77
2021/03/31 01:34:09;;;;;;;50.45;32.20;;;;;;;9.82;74.21;100020.97;114134;1206;104828;-76
2021/03/31 01:36:38;;;;;;;;;;;;;;;9.80;74.57;100022.84;114570;1214;103054;-76
2021/03/31 01:39:10;;;;;;;41.80;26.50;;;;;;;9.80;74.44;100036.13;114505;1206;103108;-75
2021/03/31 01:41:39;;;;;;;46.55;31.35;;;;;;;9.78;74.45;100030.91;114532;1206;103054;-77
2021/03/31 01:44:14;;;;;;;46.85;30.85;;;;;;;9.75;74.17;100027.58;114507;1206;103088;-76
2021/03/31 01:46:51;;;;;;;48.30;31.30;;;;;;;9.68;74.28;100027.91;114516;1206;103203;-76
2021/03/31 01:49:23;;;;;;;48.60;33.40;;;;;;;9.70;74.42;100026.97;114370;1206;103597;-77
2021/03/31 01:52:02;;;;;;;47.80;30.15;;;;;;;9.68;74.42;100027.03;114537;1206;103196;-78
2021/03/31 01:54:31;;;;;;;47.85;31.40;;;;;;;9.66;74.31;100026.25;114509;1206;103201;-78
2021/03/31 01:57:02;;;;;;;49.80;31.65;;;;;;;9.66;74.48;100023.59;114531;1206;103025;-79
2021/03/31 01:59:32;;;;;;;54.00;33.25;;;;;;;9.68;74.55;100024.38;114501;1206;103182;-77
2021/03/31 02:02:00;;;;;;;47.00;31.10;;;;;;;9.70;74.56;100029.63;114407;1206;103204;-78
2021/03/31 02:04:33;;;;;;;51.00;32.10;;;;;;;9.71;74.54;100034.00;114307;1206;103079;-77
2021/03/31 02:07:05;;;;;;;49.95;33.45;;;;;;;9.73;74.48;100030.30;114379;1206;103139;-77
2021/03/31 02:09:38;;;;;;;51.10;33.70;;;;;;;9.77;74.61;100023.05;114498;1206;103168;-77
2021/03/31 02:12:11;;;;;;;47.40;31.10;;;;;;;9.75;74.47;100024.92;114503;1206;103083;-77
2021/03/31 02:14:43;;;;;;;51.30;32.50;;;;;;;9.73;74.63;100024.14;114485;1206;103155;-77
2021/03/31 02:17:20;;;;;;;47.90;32.35;;;;;;;9.74;74.59;100018.73;114506;1206;103143;-78
2021/03/31 02:19:52;;;;;;;49.55;33.90;;;;;;;9.77;74.77;100017.73;114450;1206;103216;-79
2021/03/31 02:22:22;;;;;;;46.50;30.30;;;;;;;9.79;74.86;100010.50;114539;1206;103121;-78
2021/03/31 02:24:52;;;;;;;49.90;31.90;;;;;;;9.76;74.64;100019.52;114503;1206;103079;-77
2021/03/31 02:27:21;;;;;;;51.85;34.05;;;;;;;9.68;74.51;100011.97;114352;1206;103644;-76
2021/03/31 02:29:51;;;;;;;53.25;34.50;;;;;;;9.65;74.67;100017.44;114503;1206;103209;-77
2021/03/31 02:32:23;;;;;;;51.85;33.80;;;;;;;9.66;74.66;100011.19;115004;1206;103044;-77
2021/03/31 02:34:54;;;;;;;52.40;35.25;;;;;;;9.70;74.79;100013.69;114347;1206;103044;-76
2021/03/31 02:37:24;;;;;;;47.43;31.43;;;;;;;9.72;74.82;100011.80;114483;1206;103232;-77
2021/03/31 02:39:55;;;;;;;50.50;34.70;;;;;;;9.72;74.77;100017.95;114499;1206;103172;-76
2021/03/31 02:42:27;;;;;;;51.20;33.40;;;;;;;9.76;74.80;100018.67;114548;1206;103035;-76
2021/03/31 02:44:58;;;;;;;52.35;34.45;;;;;;;9.80;74.67;100017.53;114470;1209;103156;-76
2021/03/31 02:47:30;;;;;;;50.40;34.25;;;;;;;9.86;74.77;100019.02;114495;1209;103091;-80
2021/03/31 02:50:01;;;;;;;48.40;32.75;;;;;;;9.88;74.74;100022.45;114382;1209;103185;-80
2021/03/31 02:52:31;;;;;;;49.15;32.80;;;;;;;9.82;74.81;100015.65;114481;1209;103091;-79
2021/03/31 02:55:04;;;;;;;52.75;34.10;;;;;;;9.83;74.84;100014.71;114451;1208;103174;-80
2021/03/31 02:57:38;;;;;;;48.90;33.00;;;;;;;9.88;74.79;100019.80;114494;1206;103653;-78
2021/03/31 03:00:11;;;;;;;47.80;32.50;;;;;;;9.92;75.06;100013.38;114501;1209;103162;-78
2021/03/31 03:02:42;;;;;;;49.00;32.55;;;;;;;9.96;74.82;100017.58;114493;1209;103156;-79
2021/03/31 03:05:14;;;;;;;45.70;32.20;;;;;;;9.99;74.84;100014.72;114455;1206;103435;-78
2021/03/31 03:07:43;;;;;;;47.70;32.65;;;;;;;10.02;74.98;100017.22;114472;1209;103072;-79
2021/03/31 03:10:13;;;;;;;50.30;33.30;;;;;;;10.06;74.94;100017.92;114500;1209;103209;-77
2021/03/31 03:12:59;;;;;;;50.40;33.50;;;;;;;10.07;74.85;100014.32;114489;1208;103168;-77
2021/03/31 03:15:31;;;;;;;52.80;35.30;;;;;;;10.06;74.75;100012.61;114497;1208;103073;-77
2021/03/31 03:17:58;;;;;;;50.20;33.30;;;;;;;10.06;74.77;100012.61;114473;1209;103162;-75
2021/03/31 03:20:28;;;;;;;48.90;33.90;;;;;;;10.03;74.84;100002.14;114471;1209;103178;-78
2021/03/31 03:22:59;;;;;;;49.07;34.40;;;;;;;9.99;74.61;100009.41;114494;1209;103097;-80
2021/03/31 03:25:28;;;;;;;51.80;34.70;;;;;;;9.86;74.67;100011.05;114456;1209;103146;-78
2021/03/31 03:27:57;;;;;;;51.00;33.90;;;;;;;9.78;74.69;100000.84;114509;1209;103092;-78
2021/03/31 03:30:27;;;;;;;50.80;33.30;;;;;;;9.77;74.99;100007.94;114453;1209;103086;-77
2021/03/31 03:32:56;;;;;;;52.23;34.53;;;;;;;9.82;74.72;100007.68;114536;1209;103155;-77
2021/03/31 03:35:27;;;;;;;53.43;34.80;;;;;;;9.83;75.04;100001.42;114518;1209;103081;-77
2021/03/31 03:37:57;;;;;;;46.00;32.50;;;;;;;9.84;74.86;99997.83;114521;1209;103091;-78
2021/03/31 03:40:27;;;;;;;48.15;31.90;;;;;;;9.83;74.96;100001.42;114538;1209;103124;-77
2021/03/31 03:42:55;;;;;;;48.50;33.00;;;;;;;9.83;74.83;99999.64;114483;1209;103063;-77
2021/03/31 03:45:25;;;;;;;47.90;34.70;;;;;;;9.89;75.07;99992.28;114548;1209;103078;-77
2021/03/31 03:47:55;;;;;;;53.45;33.75;;;;;;;9.93;74.95;99997.33;114478;1209;103088;-75
2021/03/31 03:50:24;;;;;;;55.50;34.30;;;;;;;9.93;75.04;99991.17;114499;1209;103081;-77
2021/03/31 03:52:55;;;;;;;52.30;34.70;;;;;;;9.94;74.96;99988.41;114461;1209;103194;-76
2021/03/31 03:55:25;;;;;;;49.45;34.75;;;;;;;9.95;75.00;99991.95;114465;1206;103092;-76
2021/03/31 03:57:54;;;;;;;46.25;32.80;;;;;;;9.93;74.86;99988.52;114472;1206;103057;-76
2021/03/31 04:00:24;;;;;;;51.00;34.80;;;;;;;9.93;75.22;99994.67;114426;1206;103063;-76
2021/03/31 04:02:55;;;;;;;50.05;35.25;;;;;;;9.96;75.07;99998.98;114256;1206;103162;-78
2021/03/31 04:05:23;;;;;;;50.45;34.40;;;;;;;9.94;74.90;100003.52;114246;1206;103201;-81
2021/03/31 04:07:53;;;;;;;48.30;34.30;;;;;;;9.93;74.85;100004.45;114315;1206;103130;-77
2021/03/31 04:10:25;;;;;;;49.60;32.60;;;;;;;9.88;74.82;99996.72;114428;1208;103127;-75
2021/03/31 04:12:59;;;;;;;49.70;33.60;;;;;;;9.81;74.73;100003.30;114307;1206;103171;-76
2021/03/31 04:15:29;;;;;;;55.70;35.90;;;;;;;9.74;74.74;100001.95;114428;1206;103079;-79
2021/03/31 04:18:00;;;;;;;48.40;35.13;;;;;;;9.74;75.06;100005.45;114284;1206;103171;-81
2021/03/31 04:20:30;;;;;;;50.70;35.95;;;;;;;9.80;75.11;100013.09;114311;1206;103180;-80
2021/03/31 04:22:58;;;;;;;50.80;33.60;;;;;;;9.81;74.94;100004.18;114654;1206;103085;-80
2021/03/31 04:25:27;;;;;;;50.95;33.50;;;;;;;9.81;75.02;99996.21;114415;1206;103551;-77
2021/03/31 04:27:57;;;;;;;54.70;34.85;;;;;;;9.86;75.14;100003.08;114384;1206;103082;-82
2021/03/31 04:30:25;;;;;;;50.45;33.80;;;;;;;9.87;75.08;100010.95;114553;1206;103193;-76
2021/03/31 04:32:55;;;;;;;50.90;35.70;;;;;;;9.89;75.16;100009.06;114425;1206;103063;-81
2021/03/31 04:35:22;;;;;;;51.60;34.50;;;;;;;9.95;75.17;100010.55;114429;1209;103118;-80
2021/03/31 04:38:07;;;;;;;52.57;34.80;;;;;;;10.00;75.25;100013.78;114479;1206;103165;-81
2021/03/31 04:40:48;;;;;;;51.70;35.60;;;;;;;10.04;75.36;100011.83;114482;1206;103210;-76
2021/03/31 04:43:20;;;;;;;53.70;35.80;;;;;;;10.06;75.16;100005.47;114349;1206;103609;-78
2021/03/31 04:45:49;;;;;;;53.35;34.65;;;;;;;10.07;74.98;100009.84;114411;1206;103099;-77
2021/03/31 04:48:19;;;;;;;54.10;36.80;;;;;;;10.08;75.31;100008.06;114411;1206;103047;-79
2021/03/31 04:50:46;;;;;;;52.90;35.45;;;;;;;10.10;75.21;100012.34;114400;1206;103049;-78
2021/03/31 04:53:13;;;;;;;55.70;36.80;;;;;;;10.15;75.34;100008.56;114411;1209;103047;-77
2021/03/31 04:55:40;;;;;;;54.30;36.55;;;;;;;10.19;75.10;100008.30;114440;1204;103222;-78
2021/03/31 04:58:07;;;;;;;55.90;34.90;;;;;;;10.23;75.29;100001.02;114343;1206;103187;-78
2021/03/31 05:00:34;;;;;;;50.40;36.20;;;;;;;10.28;75.34;100009.60;114463;1206;103181;-79
2021/03/31 05:03:02;;;;;;;50.30;34.05;;;;;;;10.28;75.14;100004.28;114467;1206;103219;-78
2021/03/31 05:05:29;;;;;;;53.35;34.30;;;;;;;10.22;74.95;100010.78;114451;1206;101563;-77
2021/03/31 05:07:56;;;;;;;55.15;36.40;;;;;;;10.10;74.98;100007.02;114460;1206;103124;-77
2021/03/31 05:10:26;;;;;;;51.30;35.70;;;;;;;10.10;75.16;100004.36;114460;1206;103085;-81
2021/03/31 05:12:55;;;;;;;53.10;36.90;;;;;;;10.11;75.17;100016.71;114494;1206;103088;-81
2021/03/31 05:15:24;;;;;;;52.70;35.10;;;;;;;10.11;75.30;100016.71;114458;1209;103182;-79
2021/03/31 05:17:51;;;;;;;57.30;37.47;;;;;;;10.16;75.34;100012.94;114426;1207;103064;-77
2021/03/31 05:20:18;;;;;;;50.40;34.20;;;;;;;10.21;75.28;100017.05;114432;1209;103235;-79
2021/03/31 05:22:47;;;;;;;52.30;35.20;;;;;;;10.25;75.35;100012.44;114300;1209;103114;-80
2021/03/31 05:25:14;;;;;;;49.30;34.65;;;;;;;10.32;75.43;100012.94;114331;1206;103165;-79
2021/03/31 05:27:41;;;;;;;52.70;35.43;;;;;;;10.34;75.41;100016.36;114354;1206;103200;-78
2021/03/31 05:30:10;;;;;;;52.60;36.15;;;;;;;10.38;75.42;100017.91;114397;1209;103162;-77
2021/03/31 05:32:37;;;;;;;55.80;38.50;;;;;;;10.40;75.40;100013.39;114348;1209;103153;-78
2021/03/31 05:35:09;;;;;;;57.95;38.10;;;;;;;10.41;75.41;100020.42;114110;1206;103197;-78
2021/03/31 05:37:36;;;;;;;59.55;39.60;;;;;;;10.45;75.47;100021.97;114294;1206;103024;-78
2021/03/31 05:40:06;;;;;;;58.30;38.90;;;;;;;10.49;75.39;100028.84;114425;1206;103047;-78
2021/03/31 05:42:38;;;;;;;56.40;36.30;;;;;;;10.54;75.53;100025.90;114339;1206;101525;-79
2021/03/31 05:45:08;;;;;;;56.50;35.90;;;;;;;10.59;75.44;100020.34;114411;1206;103095;-80
2021/03/31 05:47:43;;;;;;;55.80;37.80;;;;;;;10.63;75.47;100027.16;114411;1206;103692;-79
2021/03/31 05:50:20;;;;;;;53.90;34.10;;;;;;;10.60;75.14;100022.89;114490;1206;103047;-79
2021/03/31 05:52:47;;;;;;;49.90;33.80;;;;;;;10.46;74.93;100017.50;114507;1206;103194;-79
2021/03/31 05:55:19;;;;;;;52.30;35.30;;;;;;;10.32;74.84;100016.47;114496;1206;103127;-78
2021/03/31 05:57:46;;;;;;;54.70;37.10;;;;;;;10.22;74.79;100007.28;114471;1206;103082;-79
2021/03/31 06:00:19;;;;;;;50.40;34.80;;;;;;;10.23;75.08;100001.87;114055;1209;103109;-78
2021/03/31 06:02:50;;;;;;;53.30;36.40;;;;;;;10.18;74.93;100003.95;114324;1206;103091;-79
2021/03/31 06:05:19;;;;;;;58.80;37.70;;;;;;;10.21;75.08;100002.91;114472;1206;103126;-79
2021/03/31 06:07:50;;;;;;;61.80;41.80;;;;;;;10.22;75.04;99994.83;114915;1206;103163;-78
2021/03/31 06:10:22;;;;;;;59.60;40.85;;;;;;;10.26;75.12;99983.08;114443;1206;103088;-80
2021/03/31 06:13:05;;;;;;;57.70;39.80;;;;;;;10.26;75.07;99983.08;114447;1206;103134;-79
2021/03/31 06:15:46;;;;;;;58.45;40.30;;;;;;;10.33;75.13;99978.30;114454;1206;103599;-79
2021/03/31 06:18:19;;;;;;;56.70;39.30;;;;;;;10.43;75.33;99994.61;114473;1206;103089;-81
2021/03/31 06:21:03;;;;;;;58.50;40.90;;;;;;;10.52;75.37;99988.76;114555;1206;103118;-79
2021/03/31 06:24:00;;;;;;;67.10;41.70;;;;;;;10.67;75.57;99988.80;114451;1206;103133;-80
2021/03/31 06:26:34;;;;;;;58.50;40.20;;;;;;;10.83;75.48;99991.41;114407;1206;103072;-78
2021/03/31 06:29:06;;;;;;;62.70;41.25;;;;;;;10.94;75.42;99982.81;114431;1206;103088;-82
2021/03/31 06:31:48;;;;;;;64.10;44.70;;;;;;;11.02;75.40;99989.38;114446;1206;103159;-80
2021/03/31 06:34:24;;;;;;;69.80;42.40;;;;;;;11.11;75.42;99987.96;114470;1206;103113;-77
2021/03/31 06:36:58;;;;;;;69.90;46.00;;;;;;;11.19;75.55;99982.19;114503;1206;103075;-81
2021/03/31 06:39:35;;;;;;;82.00;48.65;;;;;;;11.24;75.40;99984.56;114466;1206;103092;-83
2021/03/31 06:42:12;;;;;;;69.55;41.90;;;;;;;11.30;75.36;99979.70;114588;1206;103146;-81
2021/03/31 06:45:05;;;;;;;74.50;42.90;;;;;;;11.38;75.45;99983.72;114561;1206;103062;-80
2021/03/31 06:47:44;;;;;;;87.30;49.30;;;;;;;11.48;75.42;99982.20;114498;1206;103162;-79
2021/03/31 06:50:21;;;;;;;80.90;45.55;;;;;;;11.54;75.41;99983.62;114525;1206;103181;-81
2021/03/31 06:53:01;;;;;;;85.07;47.80;;;;;;;11.58;75.27;99986.02;114476;1206;103131;-82
2021/03/31 06:55:33;;;;;;;84.00;49.85;;;;;;;11.69;75.44;99988.00;114496;1206;103105;-82
2021/03/31 06:58:10;;;;;;;88.70;49.70;;;;;;;11.82;75.52;99988.08;114480;1206;103137;-81
2021/03/31 07:00:40;;;;;;;75.55;42.90;;;;;;;11.91;75.60;99992.84;114605;1206;101957;-82
2021/03/31 07:03:10;;;;;;;85.87;47.87;;;;;;;11.90;75.27;99987.58;114496;1206;103166;-80
2021/03/31 07:05:45;;;;;;;79.70;44.60;;;;;;;11.95;75.22;99985.48;114448;1206;103078;-82
2021/03/31 07:08:15;;;;;;;86.90;46.30;;;;;;;12.00;75.23;99977.24;114376;1206;103136;-80
2021/03/31 07:10:52;;;;;;;87.00;47.50;;;;;;;12.11;75.30;99980.05;114470;1206;103155;-83
2021/03/31 07:13:38;;;;;;;91.30;49.95;;;;;;;12.20;75.20;99978.63;114480;1206;103130;-79
2021/03/31 07:16:06;;;;;;;82.50;46.30;;;;;;;12.35;75.33;99984.77;114500;1206;103227;-80
2021/03/31 07:18:39;;;;;;;87.80;49.75;;;;;;;12.46;75.35;99984.89;114485;1206;103146;-81
2021/03/31 07:21:06;;;;;;;90.65;51.05;;;;;;;12.57;75.54;99986.87;114482;1206;103140;-80
2021/03/31 07:23:38;;;;;;;91.30;50.80;;;;;;;12.66;75.42;99988.90;114469;1206;103076;-79
2021/03/31 07:26:05;;;;;;;90.20;51.57;;;;;;;12.69;75.37;99993.20;114481;1206;103245;-79
2021/03/31 07:28:38;;;;;;;86.37;50.57;;;;;;;12.72;75.23;99986.78;114416;1207;103333;-77
2021/03/31 07:31:11;;;;;;;105.85;58.55;;;;;;;12.77;75.17;99977.53;114424;1206;103054;-77
2021/03/31 07:33:49;;;;;;;91.80;52.60;;;;;;;13.01;75.08;99978.64;114463;1206;103056;-77
2021/03/31 07:36:21;;;;;;;77.30;46.80;;;;;;;13.30;74.66;99976.59;114354;1206;103255;-77
2021/03/31 07:38:54;;;;;;;82.95;48.85;;;;;;;13.58;74.65;99971.16;114488;1206;103162;-77
2021/03/31 07:41:22;;;;;;;79.70;49.65;;;;;;;14.16;73.96;99967.94;114403;1209;102912;-79
2021/03/31 07:43:55;;;;;;;76.80;47.20;;;;;;;14.79;73.48;99967.75;114436;1206;103034;-79
2021/03/31 07:46:33;;;;;;;78.10;47.50;;;;;;;15.09;73.92;99969.91;114488;1206;103526;-79
2021/03/31 07:49:02;;;;;;;68.90;44.23;;;;;;;16.23;72.68;99969.89;114497;1206;103158;-80
2021/03/31 07:51:36;;;;;;;74.00;46.90;;;;;;;17.19;71.86;99967.30;114470;1206;103095;-79
2021/03/31 07:54:05;;;;;;;74.90;49.03;;;;;;;18.23;71.29;99952.83;114477;1206;103168;-79
2021/03/31 07:56:39;;;;;;;62.10;44.00;;;;;;;19.44;71.24;99962.36;114363;1206;103117;-78
2021/03/31 07:59:18;;;;;;;61.00;42.65;;;;;;;20.46;70.93;99954.30;114454;1206;103229;-78
2021/03/31 08:01:45;;;;;;;60.10;42.90;;;;;;;21.29;70.98;99955.83;114516;1206;103076;-79
2021/03/31 08:04:26;;;;;;;57.10;41.35;;;;;;;22.05;70.85;99952.47;114470;1206;103085;-79
2021/03/31 08:07:00;;;;;;;56.15;39.85;;;;;;;22.91;70.75;99958.52;114459;1206;103105;-77
2021/03/31 08:09:33;;;;;;;51.30;38.47;;;;;;;23.67;69.73;99960.08;114493;1206;103162;-77
2021/03/31 08:12:06;;;;;;;49.30;34.80;;;;;;;24.39;70.40;99953.64;114539;1209;102881;-76
2021/03/31 08:14:41;;;;;;;41.80;32.40;;;;;;;24.60;69.10;99952.98;114394;1207;103165;-78
2021/03/31 08:17:33;;;;;;;43.00;32.30;;;;;;;25.00;69.31;99955.55;114509;1209;103063;-78
2021/03/31 08:20:04;;;;;;;;;;;;;;;25.37;68.51;99947.53;114544;1214;104791;-77
2021/03/31 08:22:34;;;;;;;38.60;29.70;;;;;;;25.57;69.17;99950.56;114506;1206;103099;-78
2021/03/31 08:25:36;;;;;;;44.75;32.40;;;;;;;26.12;69.33;99952.91;114463;1206;103053;-77
2021/03/31 08:28:09;;;;;;;40.00;30.80;;;;;;;26.83;69.10;99940.45;114209;1206;103657;-77
2021/03/31 08:30:39;;;;;;;34.55;25.50;;;;;;;27.29;68.98;99939.95;114306;1206;103278;-79
2021/03/31 08:33:07;;;;;;;37.00;27.90;;;;;;;27.27;68.62;99938.48;114412;1206;103082;-78
2021/03/31 08:35:36;;;;;;;35.70;27.55;;;;;;;27.72;69.16;99938.11;114374;1209;103203;-78
2021/03/31 08:38:15;;;;;;;35.17;27.90;;;;;;;28.42;69.38;99935.20;114263;1206;103159;-77
2021/03/31 08:40:43;;;;;;;31.90;20.95;;;;;;;28.86;68.83;99932.10;114439;1206;103102;-78
2021/03/31 08:43:11;;;;;;;32.20;22.25;;;;;;;28.74;67.58;99937.34;114424;1206;103091;-79
2021/03/31 08:45:40;;;;;;;34.60;23.80;;;;;;;28.85;67.96;99938.63;114423;1206;103064;-75
2021/03/31 08:48:11;;;;;;;;;;;;;;;29.11;68.00;99940.51;114603;1206;103078;-86
2021/03/31 08:50:41;;;;;;;26.85;18.25;;;;;;;29.43;67.99;99934.38;114730;1206;103081;-85
2021/03/31 08:53:12;;;;;;;24.40;16.45;;;;;;;29.89;67.88;99938.85;114598;1206;103187;-89
2021/03/31 08:55:42;;;;;;;25.40;16.70;;;;;;;30.21;67.61;99916.97;114554;1207;103056;-83
2021/03/31 08:58:12;;;;;;;25.60;16.70;;;;;;;30.67;67.34;99914.15;114628;1206;103132;-84
2021/03/31 09:00:44;;;;;;;28.10;16.80;;;;;;;30.97;66.53;99922.55;114603;1209;103117;-87
2021/03/31 09:03:12;;;;;;;24.60;17.50;;;;;;;31.01;66.38;99917.44;114597;1208;103098;-83
2021/03/31 09:05:56;;;;;;;24.93;16.70;;;;;;;31.23;66.05;99911.53;114607;1208;103174;-85
2021/03/31 09:08:25;;;;;;;27.50;17.50;;;;;;;31.19;64.87;99905.66;114563;1206;103169;-87
2021/03/31 09:11:03;;;;;;;26.85;17.80;;;;;;;31.11;64.58;99911.41;114573;1206;103052;-82
2021/03/31 09:13:34;;;;;;;27.45;17.10;;;;;;;31.13;64.48;99901.89;114591;1204;103060;-82
2021/03/31 09:16:09;;;;;;;25.55;15.70;;;;;;;31.48;64.11;99906.81;114678;1209;103175;-89
2021/03/31 09:18:41;;;;;;;23.20;15.10;;;;;;;31.75;63.43;99903.77;114575;1206;103059;-83
2021/03/31 09:21:10;;;;;;;24.50;16.60;;;;;;;31.59;62.62;99905.20;114741;1206;103049;-87
2021/03/31 09:23:45;;;;;;;24.23;13.67;;;;;;;31.67;62.77;99903.22;114627;1206;101691;-88
2021/03/31 09:26:14;;;;;;;20.63;12.13;;;;;;;31.88;62.35;99901.91;114765;1206;103581;-86
2021/03/31 09:28:41;;;;;;;22.85;14.10;;;;;;;31.32;60.81;99894.53;114562;1206;103561;-87
2021/03/31 09:31:20;;;;;;;22.70;13.90;;;;;;;30.83;60.91;99901.76;114530;1206;103079;-87
2021/03/31 09:33:50;;;;;;;20.95;13.00;;;;;;;30.85;60.53;99900.45;114593;1206;102961;-88
2021/03/31 09:36:19;;;;;;;21.27;12.30;;;;;;;30.81;60.27;99893.73;114573;1206;103205;-88
2021/03/31 09:38:55;;;;;;;19.63;11.53;;;;;;;30.45;60.23;99895.27;114528;1206;103280;-89
2021/03/31 09:41:24;;;;;;;22.00;12.70;;;;;;;30.09;60.45;99896.78;114538;1206;103117;-88
2021/03/31 09:43:52;;;;;;;21.60;12.70;;;;;;;29.61;60.10;99898.05;114572;1206;103086;-88
2021/03/31 09:46:25;;;;;;;18.95;11.45;;;;;;;29.45;58.96;99889.25;114616;1206;103187;-88
2021/03/31 09:48:53;;;;;;;21.45;12.15;;;;;;;28.78;57.96;99890.19;114595;1206;103088;-88
2021/03/31 09:51:23;;;;;;;20.10;11.45;;;;;;;28.21;58.91;99889.71;114555;1206;103553;-88
2021/03/31 09:53:51;;;;;;;23.10;13.70;;;;;;;27.80;58.36;99891.48;114597;1206;103165;-87
2021/03/31 09:56:19;;;;;;;24.05;14.30;;;;;;;27.27;58.00;99890.16;114622;1206;103526;-87
2021/03/31 09:58:49;;;;;;;21.20;12.65;;;;;;;26.80;57.91;99888.96;114610;1206;103568;-87
2021/03/31 10:01:17;;;;;;;22.20;12.30;;;;;;;26.45;57.67;99878.84;114588;1209;103098;-87
2021/03/31 10:03:46;;;;;;;22.10;12.20;;;;;;;26.24;57.10;99882.41;114648;1206;103347;-86
2021/03/31 10:06:24;;;;;;;20.70;10.40;;;;;;;25.94;56.70;99877.88;114617;1206;103054;-87
2021/03/31 10:08:53;;;;;;;26.35;13.95;;;;;;;25.65;56.86;99878.78;114611;1206;103047;-82
2021/03/31 10:11:30;;;;;;;20.10;11.20;;;;;;;25.67;56.87;99877.58;114575;1206;103076;-85
2021/03/31 10:14:00;;;;;;;18.63;7.63;;;;;;;25.45;56.52;99876.67;114589;1206;103162;-87
2021/03/31 10:16:38;;;;;;;18.05;8.35;;;;;;;25.17;56.33;99876.45;114553;1206;103197;-87
2021/03/31 10:19:10;;;;;;;17.70;8.20;;;;;;;24.80;55.91;99870.88;114550;1206;103584;-87
2021/03/31 10:21:38;;;;;;;16.70;7.40;;;;;;;24.59;55.61;99872.42;114555;1206;103136;-85
2021/03/31 10:24:08;;;;;;;18.90;8.50;;;;;;;24.40;55.43;99872.91;114595;1206;103050;-86
2021/03/31 10:26:55;;;;;;;18.90;8.80;;;;;;;24.20;55.17;99868.81;114562;1206;103088;-88
2021/03/31 10:29:53;;;;;;;17.40;8.50;;;;;;;24.11;54.76;99864.45;114561;1206;103194;-86
2021/03/31 10:32:40;;;;;;;18.90;8.65;;;;;;;24.05;54.82;99851.58;114607;1206;103124;-85
2021/03/31 10:35:11;;;;;;;20.13;8.77;;;;;;;23.92;54.23;99857.59;114588;1206;103091;-85
2021/03/31 10:37:50;;;;;;;21.60;9.35;;;;;;;23.85;54.24;99843.89;114621;1206;103345;-87
2021/03/31 10:53:56;;;;;;;19.20;9.70;;;;;;;23.65;53.58;99840.78;114627;1206;103188;-86
2021/03/31 10:56:25;;;;;;;21.20;10.60;;;;;;;23.60;53.24;99837.75;114560;1206;103101;-85
2021/03/31 10:58:52;;;;;;;20.50;9.80;;;;;;;23.58;53.45;99842.52;114617;1208;103180;-89
2021/03/31 11:01:22;;;;;;;19.20;10.00;;;;;;;23.48;53.34;99832.70;114135;1209;103178;-89
2021/03/31 11:03:54;;;;;;;19.05;10.15;;;;;;;23.39;52.66;99827.50;114571;1206;103095;-85
2021/03/31 11:06:24;;;;;;;19.20;9.45;;;;;;;23.38;53.31;99825.81;114587;1206;103172;-89
2021/03/31 11:08:52;;;;;;;20.93;9.13;;;;;;;23.52;53.31;99825.08;114590;1206;103094;-87
2021/03/31 11:11:20;;;;;;;19.10;8.90;;;;;;;23.62;52.89;99819.41;114578;1206;103177;-87
2021/03/31 11:13:50;;;;;;;20.70;10.20;;;;;;;23.73;52.71;99818.16;114595;1208;103050;-90
2021/03/31 11:16:17;;;;;;;22.10;11.50;;;;;;;23.72;52.84;99811.89;114547;1206;103638;-89
2021/03/31 11:27:14;;;;;;;21.20;10.25;;;;;;;23.57;52.13;99798.23;114623;1206;103046;-87
2021/03/31 11:29:43;;;;;;;22.70;8.35;;;;;;;23.50;51.86;99799.97;114548;1206;103052;-85
2021/03/31 11:32:11;;;;;;;18.40;8.67;;;;;;;23.46;52.07;99799.46;114572;1206;103050;-87
2021/03/31 11:34:38;;;;;;;18.70;8.35;;;;;;;23.43;51.69;99797.13;114503;1206;103146;-85
2021/03/31 11:37:05;;;;;;;20.63;9.07;;;;;;;23.44;51.62;99797.96;114550;1206;103341;-87
2021/03/31 11:39:33;;;;;;;18.93;8.87;;;;;;;23.25;51.33;99788.39;114675;1206;103156;-87
2021/03/31 11:42:00;;;;;;;18.40;8.60;;;;;;;23.26;51.80;99784.66;114817;1206;103066;-83
2021/03/31 11:44:27;;;;;;;17.70;8.35;;;;;;;23.25;51.65;99788.39;114642;1206;103238;-86
2021/03/31 11:46:55;;;;;;;19.40;9.50;;;;;;;23.11;51.22;99782.64;114683;1206;103053;-88